sensor_id;sensor_type;location;lat;lon;timestamp;pressure;altitude;pressure_sealevel;temperature
75431;BMP280;64127;51.488;5.462;2023-02-23T00:01:24;101059.34;;;12.33
75431;BMP280;64127;51.488;5.462;2023-02-23T00:03:57;101054.97;;;12.33
75431;BMP280;64127;51.488;5.462;2023-02-23T00:06:31;101066.25;;;12.31
75431;BMP280;64127;51.488;5.462;2023-02-23T00:09:05;101058.34;;;12.29
75431;BMP280;64127;51.488;5.462;2023-02-23T00:11:41;101065.25;;;12.27
75431;BMP280;64127;51.488;5.462;2023-02-23T00:14:13;101059.09;;;12.27
75431;BMP280;64127;51.488;5.462;2023-02-23T00:16:45;101065.22;;;12.26
75431;BMP280;64127;51.488;5.462;2023-02-23T00:19:18;101052.72;;;12.20
75431;BMP280;64127;51.488;5.462;2023-02-23T00:21:52;101062.63;;;12.27
75431;BMP280;64127;51.488;5.462;2023-02-23T00:24:24;101063.41;;;12.25
75431;BMP280;64127;51.488;5.462;2023-02-23T00:26:57;101061.69;;;12.25
75431;BMP280;64127;51.488;5.462;2023-02-23T00:29:29;101062.63;;;12.27
75431;BMP280;64127;51.488;5.462;2023-02-23T00:32:09;101052.09;;;12.27
75431;BMP280;64127;51.488;5.462;2023-02-23T00:34:41;101052.28;;;12.32
75431;BMP280;64127;51.488;5.462;2023-02-23T00:37:13;101053.31;;;12.35
75431;BMP280;64127;51.488;5.462;2023-02-23T00:39:45;101051.63;;;12.37
75431;BMP280;64127;51.488;5.462;2023-02-23T00:42:17;101049.84;;;12.36
75431;BMP280;64127;51.488;5.462;2023-02-23T00:44:49;101055.22;;;12.39
75431;BMP280;64127;51.488;5.462;2023-02-23T00:47:21;101042.91;;;12.38
75431;BMP280;64127;51.488;5.462;2023-02-23T00:49:53;101040.31;;;12.40
75431;BMP280;64127;51.488;5.462;2023-02-23T00:52:25;101043.94;;;12.43
75431;BMP280;64127;51.488;5.462;2023-02-23T00:54:57;101044.84;;;12.44
75431;BMP280;64127;51.488;5.462;2023-02-23T00:57:29;101049.16;;;12.42
75431;BMP280;64127;51.488;5.462;2023-02-23T01:00:04;101037.16;;;12.26
75431;BMP280;64127;51.488;5.462;2023-02-23T01:02:51;101045.19;;;12.29
75431;BMP280;64127;51.488;5.462;2023-02-23T01:05:23;101049.38;;;12.24
75431;BMP280;64127;51.488;5.462;2023-02-23T01:07:54;101059.88;;;12.24
75431;BMP280;64127;51.488;5.462;2023-02-23T01:10:26;101057.84;;;12.17
75431;BMP280;64127;51.488;5.462;2023-02-23T01:12:58;101056.19;;;12.19
75431;BMP280;64127;51.488;5.462;2023-02-23T01:15:30;101049.03;;;12.15
75431;BMP280;64127;51.488;5.462;2023-02-23T01:18:03;101050.03;;;12.18
75431;BMP280;64127;51.488;5.462;2023-02-23T01:20:36;101058.19;;;12.26
75431;BMP280;64127;51.488;5.462;2023-02-23T01:23:11;101061.72;;;12.27
75431;BMP280;64127;51.488;5.462;2023-02-23T01:25:44;101057.16;;;12.21
75431;BMP280;64127;51.488;5.462;2023-02-23T01:28:16;101060.72;;;12.23
75431;BMP280;64127;51.488;5.462;2023-02-23T01:30:48;101050.09;;;12.20
75431;BMP280;64127;51.488;5.462;2023-02-23T01:33:21;101059.88;;;12.24
75431;BMP280;64127;51.488;5.462;2023-02-23T01:35:58;101058.97;;;12.24
75431;BMP280;64127;51.488;5.462;2023-02-23T01:38:30;101059.78;;;12.21
75431;BMP280;64127;51.488;5.462;2023-02-23T01:41:02;101042.09;;;12.17
75431;BMP280;64127;51.488;5.462;2023-02-23T01:43:57;101010.00;;;12.02
75431;BMP280;64127;51.488;5.462;2023-02-23T01:46:35;101042.19;;;12.20
75431;BMP280;64127;51.488;5.462;2023-02-23T01:49:16;101058.34;;;12.29
75431;BMP280;64127;51.488;5.462;2023-02-23T01:52:12;101054.75;;;12.27
75431;BMP280;64127;51.488;5.462;2023-02-23T01:54:50;101057.44;;;12.29
75431;BMP280;64127;51.488;5.462;2023-02-23T01:57:24;101060.19;;;12.32
75431;BMP280;64127;51.488;5.462;2023-02-23T01:59:57;101060.09;;;12.30
75431;BMP280;64127;51.488;5.462;2023-02-23T02:02:30;101061.13;;;12.34
75431;BMP280;64127;51.488;5.462;2023-02-23T02:05:05;101072.41;;;12.31
75431;BMP280;64127;51.488;5.462;2023-02-23T02:07:48;101070.63;;;12.30
75431;BMP280;64127;51.488;5.462;2023-02-23T02:10:20;101067.03;;;12.28
75431;BMP280;64127;51.488;5.462;2023-02-23T02:13:17;101063.22;;;12.20
75431;BMP280;64127;51.488;5.462;2023-02-23T02:19:01;101070.94;;;12.15
75431;BMP280;64127;51.488;5.462;2023-02-23T02:34:55;101074.06;;;12.05
75431;BMP280;64127;51.488;5.462;2023-02-23T02:46:34;101065.22;;;12.03
75431;BMP280;64127;51.488;5.462;2023-02-23T02:54:50;101064.19;;;12.00
75431;BMP280;64127;51.488;5.462;2023-02-23T02:57:27;101065.16;;;12.02
75431;BMP280;64127;51.488;5.462;2023-02-23T03:00:00;101070.53;;;12.05
75431;BMP280;64127;51.488;5.462;2023-02-23T03:02:50;101074.81;;;12.03
75431;BMP280;64127;51.488;5.462;2023-02-23T03:05:49;101075.50;;;11.97
75431;BMP280;64127;51.488;5.462;2023-02-23T03:09:43;101073.66;;;11.95
75431;BMP280;64127;51.488;5.462;2023-02-23T03:19:26;101076.00;;;11.89
75431;BMP280;64127;51.488;5.462;2023-02-23T03:22:33;101061.81;;;11.84
75431;BMP280;64127;51.488;5.462;2023-02-23T03:26:06;101081.09;;;11.84
75431;BMP280;64127;51.488;5.462;2023-02-23T03:29:40;101072.22;;;11.81
75431;BMP280;64127;51.488;5.462;2023-02-23T03:32:45;101076.91;;;11.89
75431;BMP280;64127;51.488;5.462;2023-02-23T03:42:01;101087.53;;;11.92
75431;BMP280;64127;51.488;5.462;2023-02-23T03:44:55;101083.19;;;11.93
75431;BMP280;64127;51.488;5.462;2023-02-23T03:47:48;101085.81;;;11.93
75431;BMP280;64127;51.488;5.462;2023-02-23T03:50:47;101094.50;;;11.92
75431;BMP280;64127;51.488;5.462;2023-02-23T03:54:03;101088.28;;;11.88
75431;BMP280;64127;51.488;5.462;2023-02-23T03:57:00;101094.34;;;11.87
75431;BMP280;64127;51.488;5.462;2023-02-23T03:59:57;101091.53;;;11.83
75431;BMP280;64127;51.488;5.462;2023-02-23T04:02:53;101097.03;;;11.89
75431;BMP280;64127;51.488;5.462;2023-02-23T04:05:47;101099.66;;;11.89
75431;BMP280;64127;51.488;5.462;2023-02-23T04:08:38;101087.38;;;11.88
75431;BMP280;64127;51.488;5.462;2023-02-23T04:11:39;101098.91;;;11.91
75431;BMP280;64127;51.488;5.462;2023-02-23T04:14:47;101095.19;;;11.86
75431;BMP280;64127;51.488;5.462;2023-02-23T04:17:26;101098.78;;;11.88
75431;BMP280;64127;51.488;5.462;2023-02-23T04:19:59;101055.88;;;11.67
75431;BMP280;64127;51.488;5.462;2023-02-23T04:22:31;101105.91;;;11.92
75431;BMP280;64127;51.488;5.462;2023-02-23T04:25:04;101104.19;;;11.93
75431;BMP280;64127;51.488;5.462;2023-02-23T04:27:37;101105.91;;;11.92
75431;BMP280;64127;51.488;5.462;2023-02-23T04:30:09;101096.97;;;11.87
75431;BMP280;64127;51.488;5.462;2023-02-23T04:32:42;101101.44;;;11.90
75431;BMP280;64127;51.488;5.462;2023-02-23T04:35:17;101112.16;;;11.94
75431;BMP280;64127;51.488;5.462;2023-02-23T04:37:49;101109.53;;;11.94
75431;BMP280;64127;51.488;5.462;2023-02-23T04:40:21;101112.06;;;11.93
75431;BMP280;64127;51.488;5.462;2023-02-23T04:42:55;101119.91;;;11.91
75431;BMP280;64127;51.488;5.462;2023-02-23T04:45:27;101109.31;;;11.90
75431;BMP280;64127;51.488;5.462;2023-02-23T04:47:59;101121.69;;;11.92
75431;BMP280;64127;51.488;5.462;2023-02-23T04:50:32;101118.16;;;11.92
75431;BMP280;64127;51.488;5.462;2023-02-23T04:53:04;101117.16;;;11.88
75431;BMP280;64127;51.488;5.462;2023-02-23T04:55:36;101116.00;;;11.82
75431;BMP280;64127;51.488;5.462;2023-02-23T04:58:09;101128.41;;;11.86
75431;BMP280;64127;51.488;5.462;2023-02-23T05:00:44;101122.16;;;11.82
75431;BMP280;64127;51.488;5.462;2023-02-23T05:03:16;101122.03;;;11.79
75431;BMP280;64127;51.488;5.462;2023-02-23T05:05:48;101137.16;;;11.85
75431;BMP280;64127;51.488;5.462;2023-02-23T05:08:20;101131.13;;;11.87
75431;BMP280;64127;51.488;5.462;2023-02-23T05:10:52;101124.97;;;11.87
75431;BMP280;64127;51.488;5.462;2023-02-23T05:13:24;101126.78;;;11.88
75431;BMP280;64127;51.488;5.462;2023-02-23T05:15:56;101115.75;;;11.76
75431;BMP280;64127;51.488;5.462;2023-02-23T05:18:29;101130.22;;;11.87
75431;BMP280;64127;51.488;5.462;2023-02-23T05:21:06;101136.41;;;11.89
75431;BMP280;64127;51.488;5.462;2023-02-23T05:23:38;101128.41;;;11.86
75431;BMP280;64127;51.488;5.462;2023-02-23T05:26:12;101131.03;;;11.86
75431;BMP280;64127;51.488;5.462;2023-02-23T05:28:44;101130.09;;;11.84
75431;BMP280;64127;51.488;5.462;2023-02-23T05:31:16;101136.94;;;11.80
75431;BMP280;64127;51.488;5.462;2023-02-23T05:33:49;101128.06;;;11.77
75431;BMP280;64127;51.488;5.462;2023-02-23T05:36:21;101143.09;;;11.81
75431;BMP280;64127;51.488;5.462;2023-02-23T05:38:53;101141.38;;;11.81
75431;BMP280;64127;51.488;5.462;2023-02-23T05:41:25;101146.56;;;11.80
75431;BMP280;64127;51.488;5.462;2023-02-23T05:43:57;101145.72;;;11.81
75431;BMP280;64127;51.488;5.462;2023-02-23T05:46:29;101147.47;;;11.80
75431;BMP280;64127;51.488;5.462;2023-02-23T05:49:02;101143.09;;;11.81
75431;BMP280;64127;51.488;5.462;2023-02-23T05:51:34;101146.63;;;11.81
75431;BMP280;64127;51.488;5.462;2023-02-23T05:54:06;101144.00;;;11.81
75431;BMP280;64127;51.488;5.462;2023-02-23T05:56:40;101155.53;;;11.85
75431;BMP280;64127;51.488;5.462;2023-02-23T05:59:12;101150.22;;;11.83
75431;BMP280;64127;51.488;5.462;2023-02-23T06:01:44;101152.00;;;11.84
75431;BMP280;64127;51.488;5.462;2023-02-23T06:04:16;101149.41;;;11.86
75431;BMP280;64127;51.488;5.462;2023-02-23T06:06:48;101153.72;;;11.84
75431;BMP280;64127;51.488;5.462;2023-02-23T06:09:20;101150.22;;;11.83
75431;BMP280;64127;51.488;5.462;2023-02-23T06:11:52;101150.13;;;11.82
75431;BMP280;64127;51.488;5.462;2023-02-23T06:14:24;101148.53;;;11.85
75431;BMP280;64127;51.488;5.462;2023-02-23T06:16:56;101159.09;;;11.87
75431;BMP280;64127;51.488;5.462;2023-02-23T06:19:28;101150.22;;;11.83
75431;BMP280;64127;51.488;5.462;2023-02-23T06:22:02;101160.91;;;11.88
75431;BMP280;64127;51.488;5.462;2023-02-23T06:24:34;101160.94;;;11.89
75431;BMP280;64127;51.488;5.462;2023-02-23T06:27:06;101163.53;;;11.88
75431;BMP280;64127;51.488;5.462;2023-02-23T06:29:38;101148.34;;;11.81
75431;BMP280;64127;51.488;5.462;2023-02-23T06:32:10;101170.69;;;11.92
75431;BMP280;64127;51.488;5.462;2023-02-23T06:34:42;101175.06;;;11.91
75431;BMP280;64127;51.488;5.462;2023-02-23T06:37:15;101181.06;;;11.89
75431;BMP280;64127;51.488;5.462;2023-02-23T06:39:47;101182.75;;;11.87
75431;BMP280;64127;51.488;5.462;2023-02-23T06:42:19;101187.16;;;11.88
75431;BMP280;64127;51.488;5.462;2023-02-23T06:44:51;101188.13;;;11.90
75431;BMP280;64127;51.488;5.462;2023-02-23T06:47:23;101193.38;;;11.90
75431;BMP280;64127;51.488;5.462;2023-02-23T06:49:55;101191.56;;;11.89
75431;BMP280;64127;51.488;5.462;2023-02-23T06:52:27;101184.25;;;11.82
75431;BMP280;64127;51.488;5.462;2023-02-23T06:54:59;101192.44;;;11.88
75431;BMP280;64127;51.488;5.462;2023-02-23T06:57:31;101188.81;;;11.86
75431;BMP280;64127;51.488;5.462;2023-02-23T07:00:04;101189.69;;;11.85
75431;BMP280;64127;51.488;5.462;2023-02-23T07:02:36;101192.34;;;11.86
75431;BMP280;64127;51.488;5.462;2023-02-23T07:05:09;101192.31;;;11.85
75431;BMP280;64127;51.488;5.462;2023-02-23T07:07:41;101198.50;;;11.87
75431;BMP280;64127;51.488;5.462;2023-02-23T07:10:14;101200.31;;;11.88
75431;BMP280;64127;51.488;5.462;2023-02-23T07:12:46;101206.47;;;11.88
75431;BMP280;64127;51.488;5.462;2023-02-23T07:15:18;101213.47;;;11.89
75431;BMP280;64127;51.488;5.462;2023-02-23T07:17:51;101216.19;;;11.91
75431;BMP280;64127;51.488;5.462;2023-02-23T07:20:23;101217.00;;;11.90
75431;BMP280;64127;51.488;5.462;2023-02-23T07:22:56;101218.81;;;11.91
75431;BMP280;64127;51.488;5.462;2023-02-23T07:25:29;101215.34;;;11.92
75431;BMP280;64127;51.488;5.462;2023-02-23T07:28:01;101216.19;;;11.91
75431;BMP280;64127;51.488;5.462;2023-02-23T07:30:33;101225.91;;;11.93
75431;BMP280;64127;51.488;5.462;2023-02-23T07:33:05;101238.09;;;11.91
75431;BMP280;64127;51.488;5.462;2023-02-23T07:35:37;101233.53;;;11.87
75431;BMP280;64127;51.488;5.462;2023-02-23T07:38:09;101241.22;;;11.83
75431;BMP280;64127;51.488;5.462;2023-02-23T07:40:42;101244.41;;;11.76
75431;BMP280;64127;51.488;5.462;2023-02-23T07:43:14;101247.00;;;11.74
75431;BMP280;64127;51.488;5.462;2023-02-23T07:45:46;101242.56;;;11.73
75431;BMP280;64127;51.488;5.462;2023-02-23T07:48:19;101261.59;;;11.69
75431;BMP280;64127;51.488;5.462;2023-02-23T07:50:52;101265.69;;;11.62
75431;BMP280;64127;51.488;5.462;2023-02-23T07:53:24;101269.00;;;11.58
75431;BMP280;64127;51.488;5.462;2023-02-23T07:55:59;101270.69;;;11.56
75431;BMP280;64127;51.488;5.462;2023-02-23T07:58:31;101279.38;;;11.55
75431;BMP280;64127;51.488;5.462;2023-02-23T08:01:04;101282.78;;;11.53
75431;BMP280;64127;51.488;5.462;2023-02-23T08:03:37;101285.41;;;11.53
75431;BMP280;64127;51.488;5.462;2023-02-23T08:06:09;101292.50;;;11.55
75431;BMP280;64127;51.488;5.462;2023-02-23T08:08:42;101275.81;;;11.53
75431;BMP280;64127;51.488;5.462;2023-02-23T08:11:14;101279.78;;;11.64
75431;BMP280;64127;51.488;5.462;2023-02-23T08:13:46;101284.97;;;11.63
75431;BMP280;64127;51.488;5.462;2023-02-23T08:16:18;101296.63;;;11.69
75431;BMP280;64127;51.488;5.462;2023-02-23T08:18:50;101291.69;;;11.76
75431;BMP280;64127;51.488;5.462;2023-02-23T08:21:23;101292.78;;;11.81
75431;BMP280;64127;51.488;5.462;2023-02-23T08:23:56;101294.84;;;11.88
75431;BMP280;64127;51.488;5.462;2023-02-23T08:26:28;101300.25;;;11.91
75431;BMP280;64127;51.488;5.462;2023-02-23T08:29:00;101298.31;;;11.87
75431;BMP280;64127;51.488;5.462;2023-02-23T08:31:33;101305.38;;;11.88
75431;BMP280;64127;51.488;5.462;2023-02-23T08:34:05;101302.59;;;11.85
75431;BMP280;64127;51.488;5.462;2023-02-23T08:36:37;101310.31;;;11.82
75431;BMP280;64127;51.488;5.462;2023-02-23T08:39:11;101306.63;;;11.77
75431;BMP280;64127;51.488;5.462;2023-02-23T08:41:43;101315.78;;;11.86
75431;BMP280;64127;51.488;5.462;2023-02-23T08:44:15;101316.00;;;11.91
75431;BMP280;64127;51.488;5.462;2023-02-23T08:46:47;101313.25;;;11.88
75431;BMP280;64127;51.488;5.462;2023-02-23T08:49:20;101315.09;;;11.90
75431;BMP280;64127;51.488;5.462;2023-02-23T08:51:53;101317.75;;;11.92
75431;BMP280;64127;51.488;5.462;2023-02-23T08:54:25;101324.94;;;11.96
75431;BMP280;64127;51.488;5.462;2023-02-23T08:56:57;101330.22;;;11.96
75431;BMP280;64127;51.488;5.462;2023-02-23T08:59:30;101333.75;;;11.96
75431;BMP280;64127;51.488;5.462;2023-02-23T09:02:02;101331.88;;;11.94
75431;BMP280;64127;51.488;5.462;2023-02-23T09:04:34;101328.28;;;11.92
75431;BMP280;64127;51.488;5.462;2023-02-23T09:07:07;101332.66;;;11.91
75431;BMP280;64127;51.488;5.462;2023-02-23T09:09:40;101326.28;;;11.86
75431;BMP280;64127;51.488;5.462;2023-02-23T09:12:12;101346.66;;;11.92
75431;BMP280;64127;51.488;5.462;2023-02-23T09:14:44;101345.84;;;11.93
75431;BMP280;64127;51.488;5.462;2023-02-23T09:17:17;101350.31;;;11.95
75431;BMP280;64127;51.488;5.462;2023-02-23T09:19:50;101342.66;;;12.00
75431;BMP280;64127;51.488;5.462;2023-02-23T09:22:22;101345.34;;;12.01
75431;BMP280;64127;51.488;5.462;2023-02-23T09:24:54;101346.09;;;11.99
75431;BMP280;64127;51.488;5.462;2023-02-23T09:27:26;101355.88;;;12.01
75431;BMP280;64127;51.488;5.462;2023-02-23T09:29:58;101345.78;;;11.91
75431;BMP280;64127;51.488;5.462;2023-02-23T09:32:30;101353.72;;;11.93
75431;BMP280;64127;51.488;5.462;2023-02-23T09:35:02;101362.84;;;12.01
75431;BMP280;64127;51.488;5.462;2023-02-23T09:37:34;101363.81;;;12.03
75431;BMP280;64127;51.488;5.462;2023-02-23T09:40:08;101360.09;;;11.98
75431;BMP280;64127;51.488;5.462;2023-02-23T09:45:47;101376.53;;;11.94
75431;BMP280;64127;51.488;5.462;2023-02-23T09:48:26;101377.50;;;11.96
75431;BMP280;64127;51.488;5.462;2023-02-23T09:51:01;101376.75;;;11.98
75431;BMP280;64127;51.488;5.462;2023-02-23T09:56:31;101369.56;;;11.94
75431;BMP280;64127;51.488;5.462;2023-02-23T09:59:13;101370.59;;;11.98
75431;BMP280;64127;51.488;5.462;2023-02-23T10:02:07;101374.31;;;12.03
75431;BMP280;64127;51.488;5.462;2023-02-23T10:04:49;101371.88;;;12.07
75431;BMP280;64127;51.488;5.462;2023-02-23T10:07:50;101379.81;;;12.09
75431;BMP280;64127;51.488;5.462;2023-02-23T10:10:47;101382.44;;;12.09
75431;BMP280;64127;51.488;5.462;2023-02-23T10:19:55;101356.78;;;12.02
75431;BMP280;64127;51.488;5.462;2023-02-23T10:22:34;101383.69;;;12.17
75431;BMP280;64127;51.488;5.462;2023-02-23T10:25:18;101372.63;;;12.24
75431;BMP280;64127;51.488;5.462;2023-02-23T10:27:52;101380.75;;;12.30
75431;BMP280;64127;51.488;5.462;2023-02-23T10:30:33;101380.75;;;12.30
75431;BMP280;64127;51.488;5.462;2023-02-23T10:35:56;101376.72;;;12.38
75431;BMP280;64127;51.488;5.462;2023-02-23T10:38:45;101390.38;;;12.50
75431;BMP280;64127;51.488;5.462;2023-02-23T10:41:17;101375.75;;;12.57
75431;BMP280;64127;51.488;5.462;2023-02-23T10:43:50;101381.09;;;12.58
75431;BMP280;64127;51.488;5.462;2023-02-23T10:46:28;101369.34;;;12.50
75431;BMP280;64127;51.488;5.462;2023-02-23T10:49:05;101389.06;;;12.60
75431;BMP280;64127;51.488;5.462;2023-02-23T10:51:40;101393.41;;;12.59
75431;BMP280;64127;51.488;5.462;2023-02-23T10:54:38;101382.69;;;12.55
75431;BMP280;64127;51.488;5.462;2023-02-23T10:57:28;101390.66;;;12.56
75431;BMP280;64127;51.488;5.462;2023-02-23T11:02:48;101391.84;;;12.64
75431;BMP280;64127;51.488;5.462;2023-02-23T11:08:35;101387.69;;;12.69
75431;BMP280;64127;51.488;5.462;2023-02-23T11:13:51;101395.63;;;12.92
75431;BMP280;64127;51.488;5.462;2023-02-23T11:16:30;101392.28;;;12.96
75431;BMP280;64127;51.488;5.462;2023-02-23T11:19:23;101386.91;;;12.93
75431;BMP280;64127;51.488;5.462;2023-02-23T11:21:57;101388.69;;;12.94
75431;BMP280;64127;51.488;5.462;2023-02-23T11:24:36;101394.66;;;12.90
75431;BMP280;64127;51.488;5.462;2023-02-23T11:27:23;101399.41;;;12.78
75431;BMP280;64127;51.488;5.462;2023-02-23T11:30:03;101396.53;;;12.71
75431;BMP280;64127;51.488;5.462;2023-02-23T11:32:37;101394.00;;;12.73
75431;BMP280;64127;51.488;5.462;2023-02-23T11:37:52;101392.38;;;12.56
75431;BMP280;64127;51.488;5.462;2023-02-23T11:40:30;101392.31;;;12.54
75431;BMP280;64127;51.488;5.462;2023-02-23T11:43:13;101388.03;;;12.56
75431;BMP280;64127;51.488;5.462;2023-02-23T11:45:48;101386.94;;;12.51
75431;BMP280;64127;51.488;5.462;2023-02-23T11:48:32;101382.81;;;12.58
75431;BMP280;64127;51.488;5.462;2023-02-23T11:51:05;101378.72;;;12.64
75431;BMP280;64127;51.488;5.462;2023-02-23T11:53:44;101369.75;;;12.59
75431;BMP280;64127;51.488;5.462;2023-02-23T11:56:22;101387.44;;;12.63
75431;BMP280;64127;51.488;5.462;2023-02-23T11:58:59;101386.84;;;12.70
75431;BMP280;64127;51.488;5.462;2023-02-23T12:01:41;101390.78;;;12.80
75431;BMP280;64127;51.488;5.462;2023-02-23T12:04:29;101398.78;;;12.83
75431;BMP280;64127;51.488;5.462;2023-02-23T12:10:46;101385.22;;;12.95
75431;BMP280;64127;51.488;5.462;2023-02-23T12:13:34;101375.47;;;12.92
75431;BMP280;64127;51.488;5.462;2023-02-23T12:16:22;101364.34;;;13.20
75431;BMP280;64127;51.488;5.462;2023-02-23T12:25:01;101348.69;;;13.47
75431;BMP280;64127;51.488;5.462;2023-02-23T12:27:40;101320.03;;;13.32
75431;BMP280;64127;51.488;5.462;2023-02-23T12:30:34;101350.19;;;13.40
75431;BMP280;64127;51.488;5.462;2023-02-23T12:33:14;101352.50;;;13.31
75431;BMP280;64127;51.488;5.462;2023-02-23T12:35:58;101327.97;;;13.10
75431;BMP280;64127;51.488;5.462;2023-02-23T12:39:02;101361.94;;;13.26
75431;BMP280;64127;51.488;5.462;2023-02-23T12:41:45;101361.00;;;13.24
75431;BMP280;64127;51.488;5.462;2023-02-23T12:47:38;101363.09;;;13.10
75431;BMP280;64127;51.488;5.462;2023-02-23T12:50:30;101360.66;;;13.15
75431;BMP280;64127;51.488;5.462;2023-02-23T12:53:42;101358.47;;;13.27
75431;BMP280;64127;51.488;5.462;2023-02-23T13:03:41;101364.00;;;13.11
75431;BMP280;64127;51.488;5.462;2023-02-23T13:16:41;101370.44;;;12.98
75431;BMP280;64127;51.488;5.462;2023-02-23T13:22:32;101365.13;;;12.97
75431;BMP280;64127;51.488;5.462;2023-02-23T13:24:47;101357.97;;;12.93
75431;BMP280;64127;51.488;5.462;2023-02-23T13:27:47;101356.75;;;12.85
75431;BMP280;64127;51.488;5.462;2023-02-23T13:30:21;101358.78;;;12.92
75431;BMP280;64127;51.488;5.462;2023-02-23T13:32:54;101367.56;;;12.92
75431;BMP280;64127;51.488;5.462;2023-02-23T13:35:30;101360.59;;;12.93
75431;BMP280;64127;51.488;5.462;2023-02-23T13:44:31;101364.97;;;12.71
75431;BMP280;64127;51.488;5.462;2023-02-23T13:47:31;101371.78;;;12.66
75431;BMP280;64127;51.488;5.462;2023-02-23T13:50:32;101368.19;;;12.64
75431;BMP280;64127;51.488;5.462;2023-02-23T13:53:39;101372.31;;;12.58
75431;BMP280;64127;51.488;5.462;2023-02-23T13:56:24;101364.16;;;12.52
75431;BMP280;64127;51.488;5.462;2023-02-23T13:59:17;101368.88;;;12.60
75431;BMP280;64127;51.488;5.462;2023-02-23T14:01:52;101357.75;;;12.45
75431;BMP280;64127;51.488;5.462;2023-02-23T14:04:35;101375.59;;;12.52
75431;BMP280;64127;51.488;5.462;2023-02-23T14:10:05;101376.59;;;12.56
75431;BMP280;64127;51.488;5.462;2023-02-23T14:12:41;101370.50;;;12.57
75431;BMP280;64127;51.488;5.462;2023-02-23T14:16:12;101370.19;;;12.49
75431;BMP280;64127;51.488;5.462;2023-02-23T14:19:09;101373.06;;;12.55
75431;BMP280;64127;51.488;5.462;2023-02-23T14:21:48;101375.00;;;12.59
75431;BMP280;64127;51.488;5.462;2023-02-23T14:24:25;101373.97;;;12.56
75431;BMP280;64127;51.488;5.462;2023-02-23T14:27:22;101381.88;;;12.56
75431;BMP280;64127;51.488;5.462;2023-02-23T14:32:46;101391.59;;;12.58
75431;BMP280;64127;51.488;5.462;2023-02-23T14:38:09;101394.13;;;12.55
75431;BMP280;64127;51.488;5.462;2023-02-23T14:40:47;101392.38;;;12.56
75431;BMP280;64127;51.488;5.462;2023-02-23T14:46:22;101394.03;;;12.54
75431;BMP280;64127;51.488;5.462;2023-02-23T14:49:00;101388.84;;;12.55
75431;BMP280;64127;51.488;5.462;2023-02-23T14:51:37;101393.00;;;12.50
75431;BMP280;64127;51.488;5.462;2023-02-23T14:54:41;101391.94;;;12.45
75431;BMP280;64127;51.488;5.462;2023-02-23T14:57:24;101381.53;;;12.48
75431;BMP280;64127;51.488;5.462;2023-02-23T15:00:06;101396.75;;;12.55
75431;BMP280;64127;51.488;5.462;2023-02-23T15:03:07;101394.00;;;12.52
75431;BMP280;64127;51.488;5.462;2023-02-23T15:06:00;101398.44;;;12.53
75431;BMP280;64127;51.488;5.462;2023-02-23T15:08:37;101388.28;;;12.62
75431;BMP280;64127;51.488;5.462;2023-02-23T15:11:13;101391.16;;;12.68
75431;BMP280;64127;51.488;5.462;2023-02-23T15:13:51;101373.31;;;12.61
75431;BMP280;64127;51.488;5.462;2023-02-23T15:16:29;101389.44;;;12.69
75431;BMP280;64127;51.488;5.462;2023-02-23T15:19:04;101387.81;;;12.73
75431;BMP280;64127;51.488;5.462;2023-02-23T15:21:38;101378.22;;;12.73
75431;BMP280;64127;51.488;5.462;2023-02-23T15:24:13;101378.94;;;12.70
75431;BMP280;64127;51.488;5.462;2023-02-23T15:26:47;101384.41;;;12.75
75431;BMP280;64127;51.488;5.462;2023-02-23T15:29:30;101369.63;;;12.77
75431;BMP280;64127;51.488;5.462;2023-02-23T15:32:19;101380.13;;;12.77
75431;BMP280;64127;51.488;5.462;2023-02-23T15:34:53;101386.25;;;12.78
75431;BMP280;64127;51.488;5.462;2023-02-23T15:37:41;101369.91;;;12.64
75431;BMP280;64127;51.488;5.462;2023-02-23T15:40:22;101400.28;;;12.77
75431;BMP280;64127;51.488;5.462;2023-02-23T15:42:57;101367.28;;;12.64
75431;BMP280;64127;51.488;5.462;2023-02-23T15:45:47;101392.31;;;12.75
75431;BMP280;64127;51.488;5.462;2023-02-23T15:48:23;101393.13;;;12.74
75431;BMP280;64127;51.488;5.462;2023-02-23T15:50:57;101383.50;;;12.75
75431;BMP280;64127;51.488;5.462;2023-02-23T15:53:34;101388.03;;;12.77
75431;BMP280;64127;51.488;5.462;2023-02-23T15:56:23;101379.09;;;12.74
75431;BMP280;64127;51.488;5.462;2023-02-23T15:59:04;101388.06;;;12.79
75431;BMP280;64127;51.488;5.462;2023-02-23T16:01:44;101393.28;;;12.77
75431;BMP280;64127;51.488;5.462;2023-02-23T16:04:18;101387.16;;;12.78
75431;BMP280;64127;51.488;5.462;2023-02-23T16:10:22;101402.63;;;12.70
75431;BMP280;64127;51.488;5.462;2023-02-23T16:12:54;101402.91;;;12.77
75431;BMP280;64127;51.488;5.462;2023-02-23T16:15:32;101396.66;;;12.75
75431;BMP280;64127;51.488;5.462;2023-02-23T16:18:19;101397.44;;;12.72
75431;BMP280;64127;51.488;5.462;2023-02-23T16:20:54;101393.88;;;12.70
75431;BMP280;64127;51.488;5.462;2023-02-23T16:23:42;101400.84;;;12.69
75431;BMP280;64127;51.488;5.462;2023-02-23T16:26:25;101395.63;;;12.71
75431;BMP280;64127;51.488;5.462;2023-02-23T16:29:02;101396.78;;;12.78
75431;BMP280;64127;51.488;5.462;2023-02-23T16:31:48;101399.41;;;12.78
75431;BMP280;64127;51.488;5.462;2023-02-23T16:37:02;101400.50;;;12.83
75431;BMP280;64127;51.488;5.462;2023-02-23T16:39:34;101398.72;;;12.82
75431;BMP280;64127;51.488;5.462;2023-02-23T16:42:31;101396.88;;;12.79
75431;BMP280;64127;51.488;5.462;2023-02-23T16:45:04;101392.31;;;12.75
75431;BMP280;64127;51.488;5.462;2023-02-23T16:47:43;101400.28;;;12.77
75431;BMP280;64127;51.488;5.462;2023-02-23T16:50:22;101400.16;;;12.74
75431;BMP280;64127;51.488;5.462;2023-02-23T16:52:55;101403.59;;;12.73
75431;BMP280;64127;51.488;5.462;2023-02-23T16:55:28;101404.44;;;12.71
75431;BMP280;64127;51.488;5.462;2023-02-23T16:58:02;101411.38;;;12.69
75431;BMP280;64127;51.488;5.462;2023-02-23T17:00:35;101405.25;;;12.70
75431;BMP280;64127;51.488;5.462;2023-02-23T17:03:19;101407.06;;;12.71
75431;BMP280;64127;51.488;5.462;2023-02-23T17:05:52;101407.97;;;12.72
75431;BMP280;64127;51.488;5.462;2023-02-23T17:08:24;101408.03;;;12.74